Time;durP1;ratioP1;P1;durP2;ratioP2;P2;SDS_P1;SDS_P2;PMS_P1;PMS_P2;Temp;Humidity;BMP_temperature;BMP_pressure;BME280_temperature;BME280_humidity;BME280_pressure;Samples;Min_cycle;Max_cycle;Signal;HPM_P1;HPM_P2
2021/06/16 04:25:37;;;;;;;5.57;3.38;;;15.80;82.00;;;;;;5290168;22;20705;-89
2021/06/16 04:28:04;;;;;;;5.57;3.58;;;15.90;80.90;;;;;;5039345;28;20765;-88
2021/06/16 04:30:31;;;;;;;4.10;3.30;;;16.10;80.00;;;;;;5040323;28;20210;-88
2021/06/16 04:32:58;;;;;;;4.85;3.22;;;16.10;78.60;;;;;;5040531;28;20273;-86
2021/06/16 04:36:04;;;;;;;5.40;3.40;;;16.20;78.10;;;;;;5041128;28;20556;-88
2021/06/16 04:38:31;;;;;;;5.95;3.50;;;16.30;78.20;;;;;;5040083;28;20237;-91
2021/06/16 04:41:00;;;;;;;3.63;3.30;;;16.40;78.30;;;;;;5043131;28;20653;-89
2021/06/16 04:43:27;;;;;;;3.63;3.20;;;16.40;78.30;;;;;;5042113;28;20248;-89
2021/06/16 04:46:07;;;;;;;8.07;3.40;;;16.50;78.40;;;;;;5034974;28;20233;-87
2021/06/16 04:48:34;;;;;;;6.22;3.40;;;16.60;78.40;;;;;;5041845;28;20221;-88
2021/06/16 04:51:01;;;;;;;6.35;3.20;;;16.80;77.90;;;;;;5040594;28;20201;-90
2021/06/16 04:56:19;;;;;;;6.90;3.53;;;17.20;76.30;;;;;;5045899;28;20215;-89
2021/06/16 05:02:13;;;;;;;6.00;3.58;;;17.60;75.20;;;;;;5020481;28;20211;-88
2021/06/16 05:04:39;;;;;;;3.85;3.45;;;17.80;68.30;;;;;;5020876;28;20226;-87
2021/06/16 05:07:07;;;;;;;5.25;3.47;;;17.90;69.20;;;;;;5016977;28;20227;-86
2021/06/16 05:09:34;;;;;;;6.55;3.40;;;18.00;65.60;;;;;;5020679;28;20204;-86
2021/06/16 05:12:02;;;;;;;4.07;3.20;;;18.10;64.90;;;;;;5016640;28;20613;-86
2021/06/16 05:14:29;;;;;;;6.28;3.65;;;18.10;64.90;;;;;;5031421;28;20229;-86
2021/06/16 05:16:56;;;;;;;4.32;3.28;;;18.30;65.30;;;;;;5026411;28;20233;-86
2021/06/16 05:19:24;;;;;;;5.38;3.53;;;18.30;65.10;;;;;;5029795;28;20214;-87
2021/06/16 05:21:51;;;;;;;6.32;3.70;;;18.40;64.90;;;;;;5027505;28;20230;-88
2021/06/16 05:24:20;;;;;;;5.80;3.70;;;18.50;64.90;;;;;;5016434;28;20231;-86
2021/06/16 05:26:47;;;;;;;4.43;3.50;;;18.50;63.10;;;;;;5015099;28;20227;-86
2021/06/16 05:29:15;;;;;;;4.82;3.58;;;18.60;62.10;;;;;;5027759;28;20198;-89
2021/06/16 05:31:41;;;;;;;5.30;3.45;;;18.70;62.10;;;;;;5023168;28;20233;-88
2021/06/16 05:34:08;;;;;;;5.00;3.45;;;18.80;61.60;;;;;;5026551;28;20206;-87
2021/06/16 05:36:36;;;;;;;4.88;3.45;;;18.90;61.00;;;;;;5016801;28;20203;-90
2021/06/16 05:39:06;;;;;;;4.00;3.20;;;19.00;62.00;;;;;;5017322;28;20418;-89
2021/06/16 05:41:32;;;;;;;3.97;3.35;;;19.10;59.00;;;;;;5018513;28;20214;-90
2021/06/16 05:43:59;;;;;;;6.05;3.40;;;19.30;58.00;;;;;;5021592;28;20227;-89
2021/06/16 05:46:28;;;;;;;7.47;3.50;;;19.40;57.30;;;;;;5024118;28;20207;-90
2021/06/16 05:48:54;;;;;;;5.47;3.30;;;19.50;55.40;;;;;;5021840;28;20303;-87
2021/06/16 05:51:21;;;;;;;6.60;3.38;;;19.60;55.50;;;;;;5025077;28;20600;-87
2021/06/16 05:53:48;;;;;;;6.00;3.28;;;19.60;55.50;;;;;;5019671;28;20230;-87
2021/06/16 05:56:15;;;;;;;4.45;2.90;;;19.70;55.70;;;;;;5025216;28;20204;-88
2021/06/16 05:58:42;;;;;;;3.97;3.17;;;19.70;55.60;;;;;;5019902;28;20221;-86
2021/06/16 06:01:09;;;;;;;3.35;3.05;;;19.90;55.80;;;;;;5020736;28;20203;-87
2021/06/16 06:03:37;;;;;;;3.50;3.20;;;20.00;55.80;;;;;;5017339;28;20710;-87
2021/06/16 06:06:05;;;;;;;5.47;3.03;;;20.10;54.00;;;;;;5019005;28;20222;-87
2021/06/16 06:08:32;;;;;;;5.97;3.30;;;20.20;56.10;;;;;;5019850;28;20245;-88
2021/06/16 06:10:59;;;;;;;6.57;3.60;;;20.30;56.10;;;;;;5020202;28;20227;-89
2021/06/16 06:13:26;;;;;;;5.57;3.58;;;20.40;53.10;;;;;;5012798;28;20231;-87
2021/06/16 06:15:53;;;;;;;4.07;3.08;;;20.30;52.30;;;;;;5020209;28;20225;-87
2021/06/16 06:18:19;;;;;;;6.05;3.30;;;20.50;52.80;;;;;;5016257;28;20223;-87
2021/06/16 06:20:49;;;;;;;7.60;3.42;;;20.50;53.10;;;;;;5012831;28;20270;-88
2021/06/16 06:23:16;;;;;;;6.22;3.10;;;20.70;51.80;;;;;;5014396;28;20226;-89
2021/06/16 06:25:43;;;;;;;5.72;3.20;;;20.80;51.90;;;;;;5021068;28;20235;-88
2021/06/16 06:28:10;;;;;;;5.13;2.88;;;21.00;51.00;;;;;;5015219;28;20226;-87
2021/06/16 06:30:37;;;;;;;5.57;3.30;;;21.00;51.30;;;;;;5017261;28;20584;-88
2021/06/16 06:33:04;;;;;;;6.65;3.25;;;21.20;50.80;;;;;;5021129;28;20229;-89
2021/06/16 06:35:31;;;;;;;4.32;2.92;;;21.20;51.80;;;;;;5015608;28;20203;-90
2021/06/16 06:37:59;;;;;;;6.60;3.08;;;21.30;48.70;;;;;;5016837;28;20222;-88
2021/06/16 06:40:28;;;;;;;4.97;3.15;;;21.40;48.10;;;;;;5017462;28;20638;-90
2021/06/16 06:42:55;;;;;;;4.63;2.78;;;21.50;46.60;;;;;;5026068;28;20238;-89
2021/06/16 06:45:22;;;;;;;5.82;3.05;;;21.60;45.30;;;;;;5023716;28;20218;-88
2021/06/16 06:47:50;;;;;;;3.78;3.03;;;21.60;45.10;;;;;;5014960;28;20285;-89
2021/06/16 06:50:18;;;;;;;4.05;2.85;;;21.90;45.10;;;;;;5017121;28;20278;-88
2021/06/16 06:52:47;;;;;;;4.95;3.10;;;21.90;45.90;;;;;;5018008;28;20223;-89
2021/06/16 06:55:17;;;;;;;6.47;3.40;;;21.90;47.10;;;;;;5019226;28;20211;-89
2021/06/16 06:57:45;;;;;;;4.60;2.80;;;22.10;45.60;;;;;;5014918;28;20231;-89
2021/06/16 07:00:13;;;;;;;5.88;3.45;;;22.30;46.70;;;;;;5021717;28;20195;-89
2021/06/16 07:02:42;;;;;;;6.88;3.33;;;22.30;47.00;;;;;;5012713;28;20218;-89
2021/06/16 07:05:11;;;;;;;7.57;3.50;;;22.10;45.70;;;;;;5015530;28;20227;-92
2021/06/16 07:07:38;;;;;;;6.47;3.50;;;22.20;46.80;;;;;;5014125;28;20231;-91
2021/06/16 07:10:07;;;;;;;4.85;3.20;;;22.40;45.90;;;;;;5010460;28;20195;-90
2021/06/16 07:12:35;;;;;;;6.88;3.00;;;22.80;44.80;;;;;;5030696;28;20245;-87
2021/06/16 07:15:03;;;;;;;6.15;3.05;;;23.30;42.60;;;;;;5020806;28;20210;-84
2021/06/16 07:17:31;;;;;;;5.70;2.70;;;24.80;36.10;;;;;;5022749;28;20231;-84
2021/06/16 07:19:57;;;;;;;2.90;2.45;;;26.60;31.50;;;;;;5026606;28;20231;-86
2021/06/16 07:22:24;;;;;;;4.07;2.80;;;27.80;28.10;;;;;;5016456;28;20234;-88
2021/06/16 07:24:51;;;;;;;3.85;2.80;;;27.90;27.90;;;;;;5019246;28;20225;-85
2021/06/16 07:27:18;;;;;;;3.42;2.78;;;28.00;27.70;;;;;;5023644;28;20641;-89
2021/06/16 07:29:46;;;;;;;4.90;2.97;;;27.80;28.00;;;;;;5022982;28;20201;-89
2021/06/16 07:32:13;;;;;;;3.45;2.72;;;27.50;29.50;;;;;;5020456;28;20232;-90
2021/06/16 07:34:40;;;;;;;8.40;3.30;;;26.90;30.60;;;;;;5013831;28;20650;-89
2021/06/16 07:37:07;;;;;;;5.18;3.25;;;26.50;30.90;;;;;;5014276;28;20765;-89
2021/06/16 07:39:34;;;;;;;5.47;3.30;;;25.70;36.60;;;;;;5013874;28;20730;-87
2021/06/16 07:42:01;;;;;;;4.97;3.00;;;25.40;33.50;;;;;;5017876;28;20628;-86
2021/06/16 07:44:28;;;;;;;11.80;3.63;;;25.10;30.70;;;;;;5026267;28;20346;-87
2021/06/16 07:46:56;;;;;;;5.13;3.10;;;24.80;32.00;;;;;;5019698;28;20233;-89
2021/06/16 07:49:25;;;;;;;3.75;3.13;;;24.70;31.90;;;;;;5021268;28;20203;-91
2021/06/16 07:51:52;;;;;;;4.63;3.10;;;24.60;33.50;;;;;;5022987;28;20331;-87
2021/06/16 07:54:19;;;;;;;4.63;2.90;;;24.10;34.00;;;;;;5016600;28;20240;-89
2021/06/16 07:56:46;;;;;;;4.80;2.97;;;24.20;35.60;;;;;;5011232;28;20260;-89
2021/06/16 07:59:13;;;;;;;3.08;2.60;;;24.30;34.10;;;;;;5027184;28;20417;-87
2021/06/16 08:01:42;;;;;;;6.50;2.90;;;24.40;34.50;;;;;;5021156;28;20304;-86
2021/06/16 08:04:11;;;;;;;4.28;2.72;;;24.50;35.80;;;;;;5014289;28;20211;-87
2021/06/16 08:06:38;;;;;;;5.93;2.78;;;24.90;34.80;;;;;;5015946;28;20199;-87
2021/06/16 08:09:06;;;;;;;5.88;2.83;;;25.20;33.20;;;;;;5014530;28;20223;-89
2021/06/16 08:11:33;;;;;;;5.13;2.40;;;25.20;30.80;;;;;;5019015;28;20215;-87
2021/06/16 08:14:00;;;;;;;6.70;2.92;;;25.30;30.40;;;;;;5027077;28;20662;-86
2021/06/16 08:16:26;;;;;;;4.10;3.03;;;26.50;27.80;;;;;;5028784;28;20208;-86
2021/06/16 08:18:54;;;;;;;5.10;3.03;;;27.80;26.20;;;;;;5029565;28;20206;-87
2021/06/16 08:21:22;;;;;;;5.43;2.65;;;28.90;24.20;;;;;;5029219;28;20220;-88
2021/06/16 08:23:49;;;;;;;3.38;3.08;;;30.10;22.30;;;;;;5024282;28;20199;-86
2021/06/16 08:26:17;;;;;;;6.65;3.20;;;31.40;18.20;;;;;;5021346;28;20748;-86
2021/06/16 08:28:44;;;;;;;6.13;3.10;;;32.10;18.60;;;;;;5022124;28;20222;-86
2021/06/16 08:31:11;;;;;;;5.07;4.22;;;32.30;17.80;;;;;;5022181;28;20199;-87
2021/06/16 08:33:39;;;;;;;6.38;3.20;;;33.60;16.70;;;;;;5016850;28;20839;-88
2021/06/16 08:36:07;;;;;;;4.72;2.92;;;32.80;18.10;;;;;;5017446;28;20203;-85
2021/06/16 08:38:35;;;;;;;5.22;3.42;;;34.50;16.40;;;;;;5021497;28;20615;-85
2021/06/16 08:41:05;;;;;;;4.25;3.40;;;35.00;15.00;;;;;;5023599;28;20207;-87
2021/06/16 08:43:40;;;;;;;7.70;3.85;;;36.30;13.70;;;;;;5012576;28;20234;-87
2021/06/16 08:46:09;;;;;;;6.15;3.33;;;35.80;12.60;;;;;;5016722;28;20218;-87
2021/06/16 08:48:37;;;;;;;8.40;3.67;;;36.40;13.20;;;;;;5021190;28;21553;-88
2021/06/16 08:51:05;;;;;;;4.03;3.65;;;37.20;11.80;;;;;;5024853;28;20519;-88
2021/06/16 08:53:32;;;;;;;4.00;3.60;;;38.10;11.10;;;;;;5027146;28;20226;-87
2021/06/16 08:56:01;;;;;;;8.88;4.15;;;36.40;11.40;;;;;;5029127;28;20214;-87
2021/06/16 08:58:27;;;;;;;5.57;3.85;;;36.80;12.20;;;;;;5017351;28;20214;-87
2021/06/16 09:00:56;;;;;;;4.25;3.85;;;36.80;10.60;;;;;;5038942;28;20210;-86
2021/06/16 09:03:23;;;;;;;5.57;3.80;;;37.30;10.60;;;;;;5023651;28;20219;-87
2021/06/16 09:05:51;;;;;;;4.43;3.92;;;37.10;10.70;;;;;;5017818;28;20222;-86
2021/06/16 09:08:20;;;;;;;4.35;3.95;;;37.70;10.80;;;;;;5021055;28;20231;-88
2021/06/16 09:10:48;;;;;;;4.90;4.40;;;37.50;10.70;;;;;;5023380;28;20202;-88
2021/06/16 09:13:27;;;;;;;4.80;4.20;;;38.30;10.40;;;;;;5022148;28;20704;-87
2021/06/16 09:15:54;;;;;;;4.47;4.05;;;38.50;9.40;;;;;;5013431;28;20397;-87
2021/06/16 09:18:22;;;;;;;5.63;4.60;;;37.10;10.50;;;;;;5016880;28;20523;-90
2021/06/16 09:20:53;;;;;;;4.80;4.38;;;38.80;11.30;;;;;;5019822;28;20191;-88
2021/06/16 09:23:22;;;;;;;4.57;4.10;;;38.20;9.80;;;;;;5017062;28;20232;-88
2021/06/16 09:26:06;;;;;;;4.72;4.28;;;38.60;8.80;;;;;;5018679;28;20218;-87
2021/06/16 09:28:37;;;;;;;5.35;4.38;;;38.90;8.90;;;;;;5012804;28;20725;-88
2021/06/16 09:31:04;;;;;;;4.70;4.30;;;38.50;8.50;;;;;;5018002;28;20198;-87
2021/06/16 09:33:31;;;;;;;4.93;4.60;;;37.60;9.50;;;;;;5013454;28;20244;-88
2021/06/16 09:35:58;;;;;;;4.72;4.30;;;38.20;7.60;;;;;;5007333;28;20206;-88
2021/06/16 09:38:28;;;;;;;4.47;4.07;;;38.40;7.50;;;;;;5023925;28;20226;-87
2021/06/16 09:40:57;;;;;;;5.68;4.00;;;38.80;7.10;;;;;;5008608;28;20199;-85
2021/06/16 09:43:25;;;;;;;4.85;4.30;;;38.20;7.10;;;;;;5016577;28;20230;-85
2021/06/16 09:45:56;;;;;;;4.60;4.20;;;37.90;7.10;;;;;;5017214;28;20338;-86
2021/06/16 09:48:30;;;;;;;5.50;4.10;;;38.00;7.90;;;;;;5015636;28;20733;-85
2021/06/16 09:51:12;;;;;;;4.20;3.90;;;36.70;9.50;;;;;;5017632;28;20631;-85
2021/06/16 09:53:59;;;;;;;4.78;4.15;;;36.90;8.90;;;;;;5018630;28;20226;-84
2021/06/16 09:56:29;;;;;;;5.47;4.35;;;37.70;9.40;;;;;;5013673;28;20203;-86
2021/06/16 09:58:56;;;;;;;5.80;4.50;;;38.40;7.60;;;;;;5028965;28;20210;-84
2021/06/16 10:01:46;;;;;;;5.03;4.63;;;37.90;8.80;;;;;;5022712;28;20194;-85
2021/06/16 10:04:32;;;;;;;4.70;4.25;;;37.10;9.00;;;;;;5011911;28;20202;-84
2021/06/16 10:07:14;;;;;;;4.88;4.47;;;38.20;7.40;;;;;;5013770;28;20242;-85
2021/06/16 10:09:48;;;;;;;5.53;4.57;;;39.10;9.90;;;;;;5014037;28;20206;-85
2021/06/16 10:12:16;;;;;;;6.63;5.05;;;38.30;8.40;;;;;;5023760;28;20619;-84
2021/06/16 10:14:42;;;;;;;4.88;4.47;;;38.10;10.20;;;;;;5014607;28;20682;-84
2021/06/16 10:17:12;;;;;;;4.72;4.38;;;38.90;10.00;;;;;;5012391;28;20565;-85
2021/06/16 10:19:39;;;;;;;5.00;4.60;;;38.60;8.90;;;;;;5015257;28;20195;-85
2021/06/16 10:22:07;;;;;;;5.55;4.50;;;38.60;8.60;;;;;;5016800;28;20717;-87
2021/06/16 10:24:34;;;;;;;5.25;4.85;;;37.90;8.20;;;;;;5006931;28;20218;-87
2021/06/16 10:27:04;;;;;;;4.75;4.35;;;37.80;9.00;;;;;;5007298;28;20230;-86
2021/06/16 10:29:35;;;;;;;5.45;4.20;;;37.60;8.80;;;;;;5013680;28;20202;-86
2021/06/16 10:32:04;;;;;;;4.13;3.83;;;37.70;9.20;;;;;;5004716;28;20230;-87
2021/06/16 10:35:03;;;;;;;6.60;4.13;;;37.80;7.80;;;;;;5014116;28;20508;-89
2021/06/16 10:37:34;;;;;;;4.63;4.10;;;37.60;9.80;;;;;;5013598;28;20705;-85
2021/06/16 10:40:43;;;;;;;7.20;4.55;;;37.70;9.30;;;;;;5016988;28;20210;-86
2021/06/16 10:43:21;;;;;;;3.72;3.42;;;36.50;8.50;;;;;;5005479;28;20265;-86
2021/06/16 10:46:08;;;;;;;4.18;3.55;;;33.80;11.10;;;;;;5015276;28;20234;-85
2021/06/16 10:48:56;;;;;;;4.05;3.30;;;34.40;12.30;;;;;;5006951;28;20222;-85
2021/06/16 10:51:36;;;;;;;5.13;3.35;;;34.90;10.70;;;;;;5011390;28;20202;-85
2021/06/16 10:54:22;;;;;;;5.10;3.65;;;34.30;11.60;;;;;;5004889;28;20949;-85
2021/06/16 10:56:54;;;;;;;3.30;3.10;;;34.40;13.30;;;;;;5016363;28;20230;-85
2021/06/16 11:00:01;;;;;;;4.22;3.60;;;34.70;10.90;;;;;;5018102;28;20233;-85
2021/06/16 11:02:56;;;;;;;3.53;2.97;;;34.70;12.30;;;;;;5017166;28;20588;-84
2021/06/16 11:05:26;;;;;;;3.35;2.88;;;34.90;9.40;;;;;;5017293;28;20253;-87
2021/06/16 11:07:53;;;;;;;4.30;2.90;;;34.00;10.10;;;;;;5009305;28;20226;-85
2021/06/16 11:10:22;;;;;;;3.35;2.90;;;33.70;15.90;;;;;;5017464;28;20207;-85
2021/06/16 11:12:53;;;;;;;4.10;2.50;;;33.00;13.80;;;;;;5019447;28;20224;-86
2021/06/16 11:15:35;;;;;;;4.75;2.80;;;32.30;18.60;;;;;;5026986;28;20261;-84
2021/06/16 11:18:03;;;;;;;2.80;2.50;;;32.20;15.70;;;;;;5018750;28;20230;-85
2021/06/16 11:20:36;;;;;;;3.63;2.47;;;32.10;14.30;;;;;;5013718;28;20203;-86
2021/06/16 11:23:04;;;;;;;6.03;2.58;;;32.00;14.10;;;;;;5021533;28;20230;-84
2021/06/16 11:25:44;;;;;;;4.38;2.47;;;31.90;14.20;;;;;;5017821;28;20232;-86
2021/06/16 11:28:16;;;;;;;4.97;2.63;;;31.60;17.40;;;;;;5022943;28;20230;-88
2021/06/16 11:31:09;;;;;;;2.78;2.58;;;31.30;14.80;;;;;;5019663;28;20312;-88
2021/06/16 11:33:47;;;;;;;2.67;2.40;;;31.40;14.30;;;;;;5025783;28;21422;-86
2021/06/16 11:36:39;;;;;;;2.40;2.20;;;31.20;16.00;;;;;;5023082;28;20297;-88
2021/06/16 11:39:10;;;;;;;3.85;2.50;;;31.20;13.30;;;;;;5019854;28;20564;-87
2021/06/16 11:41:45;;;;;;;3.15;2.85;;;31.10;15.30;;;;;;5019600;28;20207;-87
2021/06/16 11:44:13;;;;;;;4.70;2.80;;;31.00;14.80;;;;;;5015999;28;20198;-87
2021/06/16 11:46:41;;;;;;;2.63;2.40;;;31.00;14.80;;;;;;5017969;28;20223;-86
2021/06/16 11:49:10;;;;;;;2.88;2.55;;;31.20;14.00;;;;;;5015922;28;20829;-85
2021/06/16 11:51:39;;;;;;;3.33;2.90;;;31.10;17.20;;;;;;5015182;28;20225;-86
2021/06/16 11:54:22;;;;;;;3.47;2.30;;;31.10;14.80;;;;;;5021427;28;20574;-87
2021/06/16 11:57:07;;;;;;;2.83;2.53;;;30.70;15.40;;;;;;5013494;28;20230;-88
2021/06/16 11:59:39;;;;;;;3.03;2.60;;;30.50;16.90;;;;;;5017961;28;20289;-88
2021/06/16 12:02:08;;;;;;;3.17;2.80;;;30.60;16.90;;;;;;5013741;28;20641;-89
2021/06/16 12:04:46;;;;;;;3.80;2.85;;;30.70;17.00;;;;;;5022034;28;20206;-86
2021/06/16 12:07:13;;;;;;;5.15;2.83;;;30.60;16.90;;;;;;5016533;28;20645;-88
2021/06/16 12:09:46;;;;;;;4.68;2.72;;;30.60;16.90;;;;;;5019160;28;20609;-86
2021/06/16 12:12:14;;;;;;;4.05;2.92;;;30.00;19.20;;;;;;5018747;28;20222;-91
2021/06/16 12:14:41;;;;;;;4.40;3.17;;;30.20;19.20;;;;;;5018958;28;20646;-88
2021/06/16 12:17:08;;;;;;;3.97;3.00;;;30.20;16.70;;;;;;5029651;28;20611;-89
2021/06/16 12:19:37;;;;;;;4.18;2.78;;;30.40;18.10;;;;;;5023021;28;20195;-89
2021/06/16 12:22:06;;;;;;;2.97;2.20;;;30.20;16.70;;;;;;5024096;28;20314;-89
2021/06/16 12:24:38;;;;;;;3.75;2.60;;;30.20;16.70;;;;;;5016550;28;20199;-90
2021/06/16 12:27:09;;;;;;;4.47;2.58;;;30.20;16.70;;;;;;5016285;28;20237;-88
2021/06/16 12:29:45;;;;;;;3.15;2.40;;;30.30;16.80;;;;;;5017735;28;20626;-89
2021/06/16 12:32:25;;;;;;;2.97;2.38;;;30.00;17.60;;;;;;5015690;28;20218;-89
2021/06/16 12:35:11;;;;;;;2.60;2.40;;;29.90;16.60;;;;;;5016871;28;20209;-86
2021/06/16 12:37:47;;;;;;;4.90;2.30;;;30.10;16.70;;;;;;5028029;28;20227;-88
2021/06/16 12:40:14;;;;;;;3.40;2.15;;;30.10;16.70;;;;;;5004890;28;20195;-88
2021/06/16 12:42:43;;;;;;;2.67;2.30;;;29.70;16.50;;;;;;5017375;28;20222;-87
2021/06/16 12:45:34;;;;;;;5.50;2.30;;;29.80;16.50;;;;;;5026383;28;20209;-84
2021/06/16 12:48:03;;;;;;;6.10;2.17;;;29.60;16.50;;;;;;5023919;28;20238;-87
2021/06/16 12:50:38;;;;;;;5.28;2.20;;;29.60;16.40;;;;;;5023521;28;20182;-87
2021/06/16 12:55:48;;;;;;;3.15;2.30;;;29.60;16.80;;;;;;5218924;22;20226;-87
2021/06/16 12:58:15;;;;;;;4.03;2.22;;;29.40;16.30;;;;;;5018217;28;20206;-87
2021/06/16 13:00:44;;;;;;;5.68;2.40;;;29.50;16.40;;;;;;5018497;28;20213;-87
2021/06/16 13:03:13;;;;;;;4.95;2.50;;;29.70;16.50;;;;;;5026003;28;20238;-87
2021/06/16 13:05:41;;;;;;;2.40;2.03;;;30.00;16.60;;;;;;5017937;28;20202;-88
2021/06/16 13:08:09;;;;;;;3.15;2.85;;;29.90;16.60;;;;;;5017516;28;20222;-87
2021/06/16 13:10:38;;;;;;;4.57;2.35;;;29.80;16.50;;;;;;5018343;28;20197;-87
2021/06/16 13:13:07;;;;;;;4.82;2.13;;;29.60;16.40;;;;;;5016198;28;20582;-86
2021/06/16 13:15:49;;;;;;;2.95;1.90;;;29.60;16.40;;;;;;5016546;28;20205;-87
2021/06/16 13:18:25;;;;;;;3.83;2.20;;;29.80;16.50;;;;;;5016141;28;20706;-88
2021/06/16 13:21:09;;;;;;;4.45;2.13;;;30.00;16.40;;;;;;5017904;28;20198;-87
2021/06/16 13:23:36;;;;;;;2.72;2.20;;;29.90;16.60;;;;;;5016752;28;20234;-87
2021/06/16 13:26:13;;;;;;;2.50;2.30;;;29.60;16.40;;;;;;4999226;28;20636;-87
2021/06/16 13:32:37;;;;;;;2.35;2.00;;;29.60;17.30;;;;;;5012392;28;20209;-88
2021/06/16 13:35:04;;;;;;;3.22;2.00;;;29.80;16.50;;;;;;4993001;28;20199;-89
2021/06/16 13:37:31;;;;;;;4.95;2.45;;;29.90;16.60;;;;;;5009522;28;20577;-89
2021/06/16 13:39:59;;;;;;;4.82;2.50;;;29.30;16.50;;;;;;5008716;28;20202;-88
2021/06/16 13:42:26;;;;;;;3.22;2.17;;;29.30;16.60;;;;;;5006207;28;20233;-89
2021/06/16 13:44:53;;;;;;;6.40;2.45;;;29.30;17.10;;;;;;5006058;28;20207;-89
2021/06/16 13:47:19;;;;;;;5.45;2.47;;;29.40;16.30;;;;;;5004116;28;20239;-88
2021/06/16 13:49:47;;;;;;;4.70;2.38;;;29.50;16.40;;;;;;5010668;28;20210;-87
2021/06/16 13:52:20;;;;;;;4.18;2.40;;;29.60;16.40;;;;;;5006718;28;20556;-88
2021/06/16 13:54:47;;;;;;;10.57;2.70;;;29.60;16.40;;;;;;5006540;28;20227;-89
2021/06/16 13:57:13;;;;;;;4.68;2.40;;;29.60;16.40;;;;;;5012798;28;20233;-90
2021/06/16 13:59:41;;;;;;;2.92;2.25;;;29.40;16.30;;;;;;5010042;28;20651;-88
2021/06/16 14:02:09;;;;;;;6.35;2.40;;;29.20;16.30;;;;;;5013839;28;20432;-88
2021/06/16 14:04:35;;;;;;;4.18;2.30;;;29.20;16.20;;;;;;5032901;28;20202;-87
2021/06/16 14:07:06;;;;;;;2.45;2.25;;;29.30;16.30;;;;;;5018882;28;20230;-90
2021/06/16 14:09:33;;;;;;;3.90;2.60;;;29.30;17.10;;;;;;5015349;28;20209;-87
2021/06/16 14:12:00;;;;;;;2.53;2.30;;;29.30;16.30;;;;;;5007225;28;20659;-87
2021/06/16 14:14:29;;;;;;;4.20;2.20;;;29.30;16.30;;;;;;5016165;28;20202;-87
2021/06/16 14:16:56;;;;;;;5.07;2.40;;;29.40;16.60;;;;;;5013612;28;20242;-89
2021/06/16 14:19:23;;;;;;;3.15;2.50;;;29.40;16.30;;;;;;5010624;28;20207;-88
2021/06/16 14:21:50;;;;;;;5.45;2.10;;;29.40;16.30;;;;;;5011829;28;20756;-88
2021/06/16 14:24:19;;;;;;;4.65;2.15;;;29.40;16.30;;;;;;5014994;28;20669;-86
2021/06/16 14:26:59;;;;;;;2.40;2.20;;;29.40;16.30;;;;;;5018086;28;20227;-87
2021/06/16 14:29:26;;;;;;;5.03;2.38;;;29.40;17.90;;;;;;5015118;28;20198;-89
2021/06/16 14:31:53;;;;;;;4.68;2.67;;;29.40;16.30;;;;;;5018395;28;20555;-86
2021/06/16 14:41:25;;;;;;;4.60;2.35;;;29.30;16.30;;;;;;5005775;28;20190;-90
2021/06/16 14:43:52;;;;;;;2.72;2.30;;;29.30;17.60;;;;;;5015229;28;20567;-87
2021/06/16 14:46:19;;;;;;;2.40;2.05;;;28.70;17.90;;;;;;5004978;28;20203;-83
2021/06/16 14:52:41;;;;;;;5.93;2.15;;;28.90;17.10;;;;;;5024538;28;20191;-85
2021/06/16 14:55:56;;;;;;;3.75;2.10;;;29.10;16.20;;;;;;5188526;23;20326;-83
2021/06/16 15:15:52;;;;;;;5.32;2.30;;;29.10;16.60;;;;;;5022665;28;20210;-84
2021/06/16 15:18:30;;;;;;;3.75;2.20;;;29.10;16.60;;;;;;5026985;28;20697;-85
2021/06/16 15:20:57;;;;;;;2.40;2.20;;;28.90;16.10;;;;;;5033636;28;20198;-85
2021/06/16 15:23:55;;;;;;;2.35;2.00;;;28.70;16.00;;;;;;5039715;28;20598;-88
2021/06/16 15:26:23;;;;;;;7.57;2.88;;;28.90;16.10;;;;;;5041043;28;20198;-82
2021/06/16 15:28:50;;;;;;;2.33;2.08;;;28.60;16.40;;;;;;5035195;28;20194;-84
2021/06/16 16:26:40;;;;;;;2.90;2.58;;;27.30;21.90;;;;;;5823320;22;20225;-84
2021/06/16 16:29:08;;;;;;;6.60;2.20;;;27.30;21.20;;;;;;5080587;28;20204;-84
2021/06/16 16:38:28;;;;;;;4.15;3.13;;;27.40;23.30;;;;;;5077537;28;20236;-86
2021/06/16 16:40:55;;;;;;;3.10;2.80;;;27.30;24.00;;;;;;5064975;28;20271;-91
2021/06/16 16:43:24;;;;;;;3.03;2.50;;;27.20;24.10;;;;;;5069300;28;20229;-86
2021/06/16 16:45:53;;;;;;;3.65;2.70;;;27.20;23.00;;;;;;5076648;28;20193;-89
2021/06/16 16:48:31;;;;;;;3.13;2.70;;;27.10;24.20;;;;;;5069362;28;20340;-88
2021/06/16 16:50:59;;;;;;;3.25;2.72;;;27.20;23.20;;;;;;5073251;28;20559;-89
2021/06/16 16:54:02;;;;;;;6.97;2.70;;;27.20;22.90;;;;;;5051178;28;20234;-87
2021/06/16 17:00:22;;;;;;;4.00;2.85;;;27.10;21.50;;;;;;4970295;28;20196;-91
2021/06/16 17:02:52;;;;;;;4.72;3.13;;;27.10;22.90;;;;;;5052650;28;20233;-91
2021/06/16 17:05:28;;;;;;;5.45;2.70;;;27.10;22.50;;;;;;5045067;28;20210;-90
2021/06/16 17:07:55;;;;;;;3.13;2.75;;;27.20;22.80;;;;;;5052710;28;20604;-89
2021/06/16 17:10:22;;;;;;;4.13;2.80;;;27.20;22.60;;;;;;5056116;28;20216;-89
2021/06/16 17:12:51;;;;;;;3.90;2.70;;;27.10;23.10;;;;;;5051306;28;20229;-90
2021/06/16 17:15:21;;;;;;;5.18;2.80;;;27.10;22.90;;;;;;5058014;28;20205;-89
2021/06/16 17:17:50;;;;;;;4.07;2.92;;;27.00;23.30;;;;;;5052122;28;20646;-87
2021/06/16 17:23:39;;;;;;;3.00;2.70;;;26.80;24.60;;;;;;5056079;28;20193;-89
2021/06/16 17:43:14;;;;;;;5.68;3.05;;;26.30;26.20;;;;;;5055772;28;20188;-91
2021/06/16 18:04:12;;;;;;;4.55;2.83;;;26.10;26.60;;;;;;5037035;28;20201;-90
2021/06/16 18:06:39;;;;;;;7.15;3.75;;;26.00;26.80;;;;;;5017059;28;20207;-89
2021/06/16 18:15:15;;;;;;;9.13;2.80;;;25.70;28.70;;;;;;5037821;28;20621;-89
2021/06/16 18:17:42;;;;;;;6.72;3.05;;;25.60;28.00;;;;;;5041023;28;20317;-84
2021/06/16 18:20:13;;;;;;;3.90;2.88;;;25.50;29.70;;;;;;5039780;28;20198;-92
2021/06/16 18:23:00;;;;;;;6.05;2.83;;;25.40;28.60;;;;;;5041301;28;20308;-89
2021/06/16 18:25:28;;;;;;;4.40;2.80;;;25.40;27.60;;;;;;5037284;28;20190;-91
2021/06/16 18:28:18;;;;;;;5.45;2.83;;;25.40;27.70;;;;;;5035419;28;20238;-90
2021/06/16 18:30:45;;;;;;;7.63;3.10;;;25.40;27.60;;;;;;5032459;28;20217;-89
2021/06/16 18:33:12;;;;;;;4.72;3.20;;;25.40;28.10;;;;;;5041321;28;20233;-88
2021/06/16 18:35:43;;;;;;;4.35;2.80;;;25.30;28.50;;;;;;5034100;28;20654;-89
2021/06/16 18:38:12;;;;;;;4.55;2.88;;;25.20;28.30;;;;;;5038698;28;20222;-94
2021/06/16 18:46:05;;;;;;;3.22;2.92;;;24.90;30.00;;;;;;5032207;28;20215;-88
2021/06/16 18:48:32;;;;;;;5.60;2.92;;;24.70;31.00;;;;;;5026087;28;20262;-84
2021/06/16 18:51:00;;;;;;;5.25;2.85;;;24.60;31.40;;;;;;5037557;28;20202;-92
2021/06/16 18:56:18;;;;;;;4.18;2.70;;;24.30;32.40;;;;;;5108862;22;20237;-90
2021/06/16 18:58:45;;;;;;;3.65;3.08;;;24.20;33.00;;;;;;5041293;28;20244;-94
2021/06/16 19:01:40;;;;;;;8.07;3.67;;;24.00;33.40;;;;;;5049455;28;20204;-94
2021/06/16 19:04:13;;;;;;;5.63;2.90;;;23.90;34.10;;;;;;5063873;28;20284;-94
2021/06/16 19:06:58;;;;;;;3.85;3.00;;;23.80;35.20;;;;;;5038871;28;20210;-90
2021/06/16 19:09:53;;;;;;;3.67;3.05;;;23.70;35.10;;;;;;4994719;28;20207;-92
2021/06/16 19:12:20;;;;;;;6.25;3.00;;;23.60;35.10;;;;;;4993926;28;20195;-91
2021/06/16 19:14:47;;;;;;;5.70;3.30;;;23.50;35.00;;;;;;5006493;28;20280;-90
2021/06/16 19:17:15;;;;;;;5.70;3.40;;;23.50;36.10;;;;;;5040866;28;20226;-90
2021/06/16 19:19:42;;;;;;;4.68;3.35;;;23.40;34.90;;;;;;5036524;28;20249;-91
2021/06/16 19:25:52;;;;;;;4.72;3.35;;;23.20;35.40;;;;;;4980201;28;20193;-91
2021/06/16 20:31:23;;;;;;;8.18;4.55;;;21.50;47.40;;;;;;5568616;22;20238;-90
2021/06/16 20:33:55;;;;;;;8.88;4.30;;;21.60;48.10;;;;;;5015691;28;20598;-90
2021/06/16 20:36:41;;;;;;;10.32;4.65;;;21.50;49.20;;;;;;5029327;28;20206;-89
2021/06/16 20:39:10;;;;;;;5.63;4.32;;;21.50;47.90;;;;;;5012043;28;20207;-89
2021/06/16 20:41:37;;;;;;;6.05;4.32;;;21.40;48.20;;;;;;5018725;28;20286;-90
2021/06/16 20:44:04;;;;;;;4.40;4.00;;;21.30;48.50;;;;;;5019667;28;20638;-90
2021/06/16 20:46:36;;;;;;;7.53;4.25;;;21.30;48.70;;;;;;5015827;28;20223;-90
2021/06/16 20:49:04;;;;;;;7.18;4.28;;;21.30;49.20;;;;;;5016738;28;20556;-90
2021/06/16 20:51:37;;;;;;;9.63;4.30;;;21.20;49.00;;;;;;5013788;28;20231;-90
2021/06/16 20:54:05;;;;;;;5.82;4.00;;;21.20;49.40;;;;;;5017238;28;20253;-89
2021/06/16 20:56:32;;;;;;;7.20;4.50;;;21.20;50.20;;;;;;5017208;28;20226;-90
2021/06/16 20:58:58;;;;;;;7.07;4.10;;;21.10;49.40;;;;;;5017089;28;20746;-90
2021/06/16 21:01:25;;;;;;;5.70;4.13;;;21.10;49.70;;;;;;5009528;28;20203;-90
2021/06/16 21:03:54;;;;;;;7.15;4.38;;;21.10;49.40;;;;;;5018852;28;20211;-90
2021/06/16 21:06:20;;;;;;;5.03;4.22;;;21.10;49.60;;;;;;5014682;28;20199;-90
2021/06/16 21:08:47;;;;;;;6.55;4.47;;;21.00;49.60;;;;;;5010962;28;20354;-90
2021/06/16 21:11:14;;;;;;;5.80;4.28;;;20.90;49.80;;;;;;5013616;28;20293;-90
2021/06/16 21:13:41;;;;;;;7.72;4.30;;;20.90;50.00;;;;;;5016426;28;20681;-90
2021/06/16 21:16:09;;;;;;;8.40;4.97;;;20.80;49.90;;;;;;5010750;28;20211;-90
2021/06/16 21:18:35;;;;;;;7.03;4.45;;;20.80;50.40;;;;;;5007563;28;20207;-90